UAE385 VTBS-OMDB
Flight info
| Callsign | UAE385 |
|---|---|
| Flight time | N/A |
| Altitude | 38000 |
| Route | PASTO1G PASTO L301 KARKU/N0490F400 L301 RAGMA N571 VUSET A454 PASOV B540 MIVEK P574 IMPED |
| Aircraft | A388/J-SADE2E3FGHIJ3J4J5M1RWXY/LB1D1 |
Departure
| Time | N/A |
|---|---|
| Airport | Suvarnabhumi Airport (VTBS) |
Arrival
| Time | 2026-05-06 11:54 |
|---|---|
| Airport | Dubai International Airport (OMDB) |
| Time | Latitude | Longitude | Altitude | Speed | Heading |
|---|---|---|---|---|---|
| 2026-05-06 06:59 | 13.95003 | 100.40935 | 15998 ft | 379 kts | 274° |
| 2026-05-06 06:59 | 13.95185 | 100.38216 | 16474 ft | 382 kts | 275° |
| 2026-05-06 07:00 | 13.95400 | 100.35480 | 16986 ft | 385 kts | 276° |
| 2026-05-06 07:00 | 13.95644 | 100.32726 | 17474 ft | 388 kts | 276° |
| 2026-05-06 07:00 | 13.95905 | 100.29957 | 17965 ft | 390 kts | 277° |
| 2026-05-06 07:00 | 13.96173 | 100.27168 | 18394 ft | 393 kts | 276° |
| 2026-05-06 07:01 | 13.96440 | 100.24399 | 18790 ft | 395 kts | 276° |
| 2026-05-06 07:01 | 13.96713 | 100.21571 | 19195 ft | 398 kts | 276° |
| 2026-05-06 07:01 | 13.96986 | 100.18725 | 19563 ft | 402 kts | 276° |
| 2026-05-06 07:01 | 13.97262 | 100.15852 | 19934 ft | 404 kts | 276° |
| 2026-05-06 07:02 | 13.97537 | 100.12966 | 20336 ft | 407 kts | 276° |
| 2026-05-06 07:02 | 13.97812 | 100.10091 | 20741 ft | 408 kts | 276° |
| 2026-05-06 07:02 | 13.98085 | 100.07214 | 21083 ft | 412 kts | 276° |
| 2026-05-06 07:02 | 13.98252 | 100.04231 | 21468 ft | 414 kts | 272° |
| 2026-05-06 07:03 | 13.98349 | 100.01257 | 21830 ft | 417 kts | 272° |
| 2026-05-06 07:03 | 13.98450 | 99.98268 | 22215 ft | 419 kts | 272° |
| 2026-05-06 07:03 | 13.98556 | 99.95262 | 22599 ft | 421 kts | 272° |
| 2026-05-06 07:03 | 13.98663 | 99.92236 | 22932 ft | 424 kts | 272° |
| 2026-05-06 07:04 | 13.98772 | 99.89191 | 23293 ft | 427 kts | 272° |
| 2026-05-06 07:04 | 13.98881 | 99.86127 | 23591 ft | 429 kts | 272° |
| 2026-05-06 07:04 | 13.98989 | 99.83057 | 23919 ft | 431 kts | 272° |
| 2026-05-06 07:04 | 13.99096 | 99.80012 | 24235 ft | 432 kts | 272° |
| 2026-05-06 07:05 | 13.99204 | 99.76911 | 24521 ft | 434 kts | 272° |
| 2026-05-06 07:05 | 13.99313 | 99.73800 | 24824 ft | 436 kts | 273° |
| 2026-05-06 07:05 | 13.99422 | 99.70668 | 25141 ft | 438 kts | 272° |
| 2026-05-06 07:05 | 13.99530 | 99.67531 | 25443 ft | 440 kts | 272° |
| 2026-05-06 07:06 | 13.99639 | 99.64378 | 25751 ft | 441 kts | 272° |
| 2026-05-06 07:06 | 13.99747 | 99.61212 | 26063 ft | 443 kts | 273° |
| 2026-05-06 07:06 | 13.99856 | 99.58028 | 26372 ft | 446 kts | 272° |
| 2026-05-06 07:06 | 13.99965 | 99.54836 | 26696 ft | 448 kts | 272° |
| 2026-05-06 07:07 | 14.00073 | 99.51669 | 27018 ft | 450 kts | 272° |
| 2026-05-06 07:07 | 14.00275 | 99.48448 | 27329 ft | 452 kts | 276° |
| 2026-05-06 07:07 | 14.00596 | 99.45226 | 27666 ft | 454 kts | 277° |
| 2026-05-06 07:07 | 14.00913 | 99.41980 | 28020 ft | 456 kts | 276° |
| 2026-05-06 07:08 | 14.01225 | 99.38720 | 28373 ft | 459 kts | 276° |
| 2026-05-06 07:08 | 14.01538 | 99.35446 | 28743 ft | 461 kts | 276° |
| 2026-05-06 07:08 | 14.01852 | 99.32150 | 29115 ft | 464 kts | 276° |
| 2026-05-06 07:08 | 14.02167 | 99.28839 | 29500 ft | 466 kts | 276° |
| 2026-05-06 07:09 | 14.02480 | 99.25550 | 29888 ft | 469 kts | 276° |
| 2026-05-06 07:09 | 14.02799 | 99.22199 | 30238 ft | 472 kts | 276° |
| 2026-05-06 07:09 | 14.03118 | 99.18827 | 30582 ft | 474 kts | 276° |
| 2026-05-06 07:09 | 14.03440 | 99.15435 | 30923 ft | 477 kts | 276° |
| 2026-05-06 07:10 | 14.03762 | 99.12031 | 31285 ft | 479 kts | 276° |
| 2026-05-06 07:10 | 14.04086 | 99.08603 | 31640 ft | 482 kts | 276° |
| 2026-05-06 07:10 | 14.04411 | 99.05157 | 31960 ft | 486 kts | 277° |
| 2026-05-06 07:10 | 14.04738 | 99.01686 | 32310 ft | 488 kts | 277° |
| 2026-05-06 07:11 | 14.05065 | 98.98209 | 32775 ft | 488 kts | 276° |
| 2026-05-06 07:11 | 14.05371 | 98.94769 | 33118 ft | 490 kts | 275° |
| 2026-05-06 07:11 | 14.05605 | 98.91253 | 33455 ft | 493 kts | 275° |
| 2026-05-06 07:11 | 14.05814 | 98.87723 | 33819 ft | 496 kts | 275° |
| 2026-05-06 07:12 | 14.06026 | 98.84172 | 34153 ft | 498 kts | 275° |
| 2026-05-06 07:12 | 14.06245 | 98.80611 | 34484 ft | 499 kts | 275° |
| 2026-05-06 07:12 | 14.06471 | 98.77049 | 34902 ft | 498 kts | 275° |
| 2026-05-06 07:12 | 14.06700 | 98.73497 | 35391 ft | 496 kts | 275° |
| 2026-05-06 07:13 | 14.06928 | 98.69957 | 35876 ft | 494 kts | 275° |
| 2026-05-06 07:13 | 14.07152 | 98.66482 | 36336 ft | 492 kts | 274° |
| 2026-05-06 07:13 | 14.07378 | 98.62968 | 36792 ft | 491 kts | 275° |
| 2026-05-06 07:13 | 14.07602 | 98.59472 | 37281 ft | 488 kts | 274° |
| 2026-05-06 07:14 | 14.07825 | 98.55991 | 37754 ft | 486 kts | 274° |
| 2026-05-06 07:14 | 14.08271 | 98.48994 | 37838 ft | 488 kts | 274° |
| 2026-05-06 07:15 | 14.08712 | 98.42036 | 37840 ft | 489 kts | 274° |
| 2026-05-06 07:15 | 14.09151 | 98.35081 | 37841 ft | 490 kts | 274° |
| 2026-05-06 07:16 | 14.09587 | 98.28134 | 37839 ft | 494 kts | 274° |
| 2026-05-06 07:16 | 14.10125 | 98.21092 | 37827 ft | 492 kts | 280° |
| 2026-05-06 07:17 | 14.11675 | 98.14251 | 37818 ft | 490 kts | 285° |
| 2026-05-06 07:17 | 14.13369 | 98.07502 | 37803 ft | 490 kts | 285° |
| 2026-05-06 07:18 | 14.15066 | 98.00706 | 37807 ft | 490 kts | 285° |
| 2026-05-06 07:18 | 14.16767 | 97.93911 | 37801 ft | 490 kts | 285° |
| 2026-05-06 07:19 | 14.18471 | 97.87103 | 37809 ft | 491 kts | 285° |
| 2026-05-06 07:19 | 14.20166 | 97.80317 | 37820 ft | 493 kts | 285° |
| 2026-05-06 07:20 | 14.21873 | 97.73469 | 37826 ft | 494 kts | 285° |
| 2026-05-06 07:20 | 14.23582 | 97.66608 | 37838 ft | 495 kts | 285° |
| 2026-05-06 07:21 | 14.25290 | 97.59738 | 37844 ft | 495 kts | 285° |
| 2026-05-06 07:21 | 14.26987 | 97.52909 | 37852 ft | 495 kts | 285° |
| 2026-05-06 07:22 | 14.28690 | 97.46040 | 37844 ft | 494 kts | 285° |
| 2026-05-06 07:22 | 14.30390 | 97.39180 | 37838 ft | 494 kts | 285° |
| 2026-05-06 07:23 | 14.32085 | 97.32330 | 37831 ft | 493 kts | 285° |
| 2026-05-06 07:23 | 14.33764 | 97.25534 | 37829 ft | 492 kts | 285° |
| 2026-05-06 07:24 | 14.35451 | 97.18696 | 37826 ft | 492 kts | 285° |
| 2026-05-06 07:24 | 14.37135 | 97.11864 | 37825 ft | 492 kts | 285° |
| 2026-05-06 07:25 | 14.38810 | 97.05060 | 37828 ft | 491 kts | 285° |
| 2026-05-06 07:25 | 14.40494 | 96.98194 | 37827 ft | 492 kts | 285° |
| 2026-05-06 07:26 | 14.42163 | 96.91405 | 37823 ft | 492 kts | 285° |
| 2026-05-06 07:26 | 14.43826 | 96.84626 | 37828 ft | 492 kts | 285° |
| 2026-05-06 07:27 | 14.45500 | 96.77788 | 37847 ft | 491 kts | 285° |
| 2026-05-06 07:27 | 14.47169 | 96.70961 | 37842 ft | 490 kts | 285° |
| 2026-05-06 07:28 | 14.48821 | 96.64194 | 37861 ft | 489 kts | 285° |
| 2026-05-06 07:28 | 14.51305 | 96.54008 | 37840 ft | 487 kts | 285° |
| 2026-05-06 07:29 | 14.52950 | 96.47248 | 37832 ft | 485 kts | 285° |
| 2026-05-06 07:29 | 14.54590 | 96.40497 | 37835 ft | 484 kts | 285° |
| 2026-05-06 07:30 | 14.56223 | 96.33771 | 37830 ft | 483 kts | 285° |
| 2026-05-06 07:30 | 14.57842 | 96.27095 | 37822 ft | 482 kts | 285° |
| 2026-05-06 07:31 | 14.59465 | 96.20388 | 37818 ft | 482 kts | 285° |
| 2026-05-06 07:31 | 14.61087 | 96.13681 | 37817 ft | 482 kts | 285° |
| 2026-05-06 07:32 | 14.62708 | 96.06968 | 37822 ft | 482 kts | 285° |
| 2026-05-06 07:32 | 14.64316 | 96.00299 | 37826 ft | 482 kts | 285° |
| 2026-05-06 07:33 | 14.65934 | 95.93580 | 37830 ft | 483 kts | 285° |
| 2026-05-06 07:33 | 14.67553 | 95.86845 | 37834 ft | 483 kts | 285° |
| 2026-05-06 07:34 | 14.69162 | 95.80144 | 37836 ft | 483 kts | 285° |
| 2026-05-06 07:34 | 14.70774 | 95.73414 | 37839 ft | 484 kts | 285° |
| 2026-05-06 07:35 | 14.72391 | 95.66672 | 37835 ft | 484 kts | 285° |
| 2026-05-06 07:35 | 14.74006 | 95.59920 | 37835 ft | 484 kts | 285° |
| 2026-05-06 07:36 | 14.75620 | 95.53167 | 37837 ft | 484 kts | 285° |
| 2026-05-06 07:36 | 14.77219 | 95.46459 | 37836 ft | 484 kts | 285° |
| 2026-05-06 07:37 | 14.78827 | 95.39709 | 37834 ft | 484 kts | 285° |
| 2026-05-06 07:37 | 14.80435 | 95.32953 | 37836 ft | 484 kts | 285° |
| 2026-05-06 07:38 | 14.82035 | 95.26214 | 37852 ft | 482 kts | 285° |
| 2026-05-06 07:38 | 14.83619 | 95.19538 | 37845 ft | 481 kts | 285° |
| 2026-05-06 07:39 | 14.85207 | 95.12834 | 37835 ft | 480 kts | 285° |
| 2026-05-06 07:39 | 14.86792 | 95.06137 | 37826 ft | 479 kts | 285° |
| 2026-05-06 07:40 | 14.88372 | 94.99451 | 37821 ft | 479 kts | 285° |
| 2026-05-06 07:40 | 14.89949 | 94.92766 | 37815 ft | 478 kts | 284° |
| 2026-05-06 07:41 | 14.91512 | 94.86131 | 37815 ft | 479 kts | 284° |
| 2026-05-06 07:41 | 14.93086 | 94.79443 | 37822 ft | 479 kts | 284° |
| 2026-05-06 07:42 | 14.94659 | 94.72747 | 37822 ft | 479 kts | 284° |
| 2026-05-06 07:42 | 14.96231 | 94.66046 | 37829 ft | 480 kts | 284° |
| 2026-05-06 07:43 | 14.97794 | 94.59378 | 37831 ft | 480 kts | 284° |
| 2026-05-06 07:43 | 14.99366 | 94.52658 | 37829 ft | 481 kts | 284° |
| 2026-05-06 07:44 | 15.00937 | 94.45935 | 37833 ft | 481 kts | 284° |
| 2026-05-06 07:44 | 15.02509 | 94.39199 | 37835 ft | 482 kts | 284° |
| 2026-05-06 07:45 | 15.04067 | 94.32509 | 37838 ft | 482 kts | 284° |
| 2026-05-06 07:45 | 15.05635 | 94.25773 | 37838 ft | 482 kts | 284° |
| 2026-05-06 07:46 | 15.07200 | 94.19037 | 37840 ft | 481 kts | 284° |
| 2026-05-06 07:46 | 15.08762 | 94.12305 | 37837 ft | 481 kts | 284° |
| 2026-05-06 07:47 | 15.10312 | 94.05616 | 37833 ft | 481 kts | 284° |
| 2026-05-06 07:47 | 15.11868 | 93.98891 | 37832 ft | 481 kts | 284° |
| 2026-05-06 07:48 | 15.13423 | 93.92160 | 37830 ft | 480 kts | 284° |
| 2026-05-06 07:48 | 15.14975 | 93.85432 | 37829 ft | 480 kts | 284° |
| 2026-05-06 07:49 | 15.16514 | 93.78753 | 37820 ft | 481 kts | 283° |
| 2026-05-06 07:49 | 15.18061 | 93.72026 | 37826 ft | 481 kts | 283° |
| 2026-05-06 07:50 | 15.19607 | 93.65297 | 37829 ft | 481 kts | 283° |
| 2026-05-06 07:50 | 15.21152 | 93.58561 | 37831 ft | 481 kts | 283° |
| 2026-05-06 07:51 | 15.22696 | 93.51822 | 37832 ft | 481 kts | 283° |
| 2026-05-06 07:51 | 15.24227 | 93.45127 | 37832 ft | 481 kts | 283° |
| 2026-05-06 07:52 | 15.25766 | 93.38386 | 37832 ft | 481 kts | 283° |
| 2026-05-06 07:52 | 15.27303 | 93.31646 | 37834 ft | 481 kts | 283° |
| 2026-05-06 07:53 | 15.28840 | 93.24899 | 37833 ft | 481 kts | 283° |
| 2026-05-06 07:53 | 15.30363 | 93.18199 | 37832 ft | 481 kts | 283° |
| 2026-05-06 07:54 | 15.31894 | 93.11455 | 37829 ft | 481 kts | 283° |
| 2026-05-06 07:54 | 15.33423 | 93.04715 | 37828 ft | 481 kts | 283° |
| 2026-05-06 07:55 | 15.34950 | 92.97968 | 37828 ft | 481 kts | 283° |
| 2026-05-06 07:55 | 15.36466 | 92.91263 | 37828 ft | 481 kts | 283° |
| 2026-05-06 07:56 | 15.37990 | 92.84513 | 37827 ft | 481 kts | 283° |
| 2026-05-06 07:56 | 15.39514 | 92.77761 | 37828 ft | 481 kts | 283° |
| 2026-05-06 07:57 | 15.41036 | 92.71006 | 37828 ft | 481 kts | 283° |
| 2026-05-06 07:57 | 15.42557 | 92.64251 | 37823 ft | 482 kts | 283° |
| 2026-05-06 07:58 | 15.44140 | 92.57556 | 37828 ft | 482 kts | 284° |
| 2026-05-06 07:58 | 15.45826 | 92.50844 | 37830 ft | 482 kts | 284° |
| 2026-05-06 07:59 | 15.47503 | 92.44099 | 37832 ft | 482 kts | 284° |
| 2026-05-06 07:59 | 15.49166 | 92.37364 | 37836 ft | 482 kts | 284° |
| 2026-05-06 08:00 | 15.50814 | 92.30666 | 37841 ft | 482 kts | 284° |
| 2026-05-06 08:00 | 15.52471 | 92.23925 | 37832 ft | 483 kts | 284° |
| 2026-05-06 08:01 | 15.54128 | 92.17174 | 37830 ft | 483 kts | 284° |
| 2026-05-06 08:01 | 15.55784 | 92.10422 | 37834 ft | 483 kts | 284° |
| 2026-05-06 08:02 | 15.57427 | 92.03708 | 37835 ft | 484 kts | 284° |
| 2026-05-06 08:02 | 15.59076 | 91.96947 | 37838 ft | 484 kts | 284° |
| 2026-05-06 08:03 | 15.60703 | 91.90179 | 37837 ft | 484 kts | 283° |
| 2026-05-06 08:03 | 15.62331 | 91.83402 | 37833 ft | 484 kts | 283° |
| 2026-05-06 08:04 | 15.63948 | 91.76672 | 37846 ft | 484 kts | 283° |
| 2026-05-06 08:04 | 15.65573 | 91.69900 | 37845 ft | 483 kts | 283° |
| 2026-05-06 08:05 | 15.67184 | 91.63172 | 37842 ft | 483 kts | 283° |
| 2026-05-06 08:05 | 15.68801 | 91.56414 | 37838 ft | 482 kts | 283° |
| 2026-05-06 08:06 | 15.70404 | 91.49705 | 37840 ft | 482 kts | 283° |
| 2026-05-06 08:06 | 15.72011 | 91.42966 | 37835 ft | 481 kts | 283° |
| 2026-05-06 08:07 | 15.73611 | 91.36238 | 37828 ft | 481 kts | 283° |
| 2026-05-06 08:07 | 15.75220 | 91.29477 | 37826 ft | 481 kts | 283° |
| 2026-05-06 08:08 | 15.76812 | 91.22778 | 37827 ft | 481 kts | 283° |
| 2026-05-06 08:08 | 15.78420 | 91.16000 | 37831 ft | 481 kts | 283° |
| 2026-05-06 08:09 | 15.80016 | 91.09260 | 37842 ft | 480 kts | 283° |
| 2026-05-06 08:09 | 15.81596 | 91.02577 | 37840 ft | 480 kts | 283° |
| 2026-05-06 08:10 | 15.83186 | 90.95846 | 37839 ft | 480 kts | 283° |
| 2026-05-06 08:10 | 15.84771 | 90.89120 | 37837 ft | 479 kts | 283° |
| 2026-05-06 08:11 | 15.86356 | 90.82391 | 37832 ft | 479 kts | 283° |
| 2026-05-06 08:11 | 15.87937 | 90.75664 | 37832 ft | 479 kts | 283° |
| 2026-05-06 08:12 | 15.89516 | 90.68938 | 37835 ft | 479 kts | 283° |
| 2026-05-06 08:12 | 15.91092 | 90.62213 | 37834 ft | 479 kts | 283° |
| 2026-05-06 08:13 | 15.92666 | 90.55486 | 37837 ft | 479 kts | 283° |
| 2026-05-06 08:13 | 15.94237 | 90.48765 | 37837 ft | 479 kts | 283° |
| 2026-05-06 08:14 | 15.95799 | 90.42072 | 37837 ft | 479 kts | 283° |
| 2026-05-06 08:14 | 15.96241 | 90.40175 | 37837 ft | 479 kts | 283° |
| 2026-05-06 08:15 | 15.97561 | 90.34508 | 37839 ft | 478 kts | 282° |
| 2026-05-06 08:15 | 15.98577 | 90.30140 | 37838 ft | 478 kts | 282° |
| 2026-05-06 08:16 | 16.00140 | 90.23413 | 37858 ft | 478 kts | 282° |
| 2026-05-06 08:16 | 16.01696 | 90.16711 | 37847 ft | 477 kts | 282° |
| 2026-05-06 08:17 | 16.03188 | 90.10460 | 37845 ft | 477 kts | 283° |
| 2026-05-06 08:17 | 16.04810 | 90.03778 | 37843 ft | 476 kts | 283° |
| 2026-05-06 08:18 | 16.06412 | 89.97136 | 37820 ft | 476 kts | 282° |
| 2026-05-06 08:18 | 16.08018 | 89.90453 | 37822 ft | 476 kts | 282° |
| 2026-05-06 08:19 | 16.09618 | 89.83779 | 37829 ft | 477 kts | 282° |
| 2026-05-06 08:19 | 16.11224 | 89.77070 | 37831 ft | 477 kts | 282° |
| 2026-05-06 08:20 | 16.12818 | 89.70409 | 37839 ft | 478 kts | 282° |
| 2026-05-06 08:20 | 16.14419 | 89.63711 | 37842 ft | 478 kts | 282° |
| 2026-05-06 08:21 | 16.15059 | 89.61027 | 37840 ft | 478 kts | 282° |
| 2026-05-06 08:21 | 16.16060 | 89.56827 | 37841 ft | 479 kts | 282° |
| 2026-05-06 08:22 | 16.17648 | 89.50159 | 37843 ft | 479 kts | 282° |
| 2026-05-06 08:22 | 16.19246 | 89.43438 | 37844 ft | 479 kts | 282° |
| 2026-05-06 08:23 | 16.20844 | 89.36707 | 37842 ft | 479 kts | 282° |
| 2026-05-06 08:23 | 16.22347 | 89.30368 | 37840 ft | 479 kts | 282° |
| 2026-05-06 08:24 | 16.23941 | 89.23635 | 37839 ft | 478 kts | 282° |
| 2026-05-06 08:24 | 16.25524 | 89.16934 | 37832 ft | 479 kts | 282° |
| 2026-05-06 08:25 | 16.27112 | 89.10208 | 37830 ft | 479 kts | 282° |
| 2026-05-06 08:25 | 16.29511 | 89.00273 | 37830 ft | 479 kts | 282° |
| 2026-05-06 08:26 | 16.32793 | 88.86819 | 37834 ft | 479 kts | 282° |
| 2026-05-06 08:26 | 16.36059 | 88.73342 | 37836 ft | 480 kts | 282° |
| 2026-05-06 08:27 | 16.39320 | 88.59846 | 37840 ft | 481 kts | 282° |
| 2026-05-06 08:27 | 16.42575 | 88.46333 | 37835 ft | 481 kts | 282° |
| 2026-05-06 08:28 | 16.45801 | 88.32903 | 37827 ft | 482 kts | 282° |
| 2026-05-06 08:28 | 16.49046 | 88.19352 | 37830 ft | 482 kts | 282° |
| 2026-05-06 08:29 | 16.52284 | 88.05787 | 37831 ft | 483 kts | 282° |
| 2026-05-06 08:29 | 16.55519 | 87.92200 | 37836 ft | 483 kts | 282° |
| 2026-05-06 08:30 | 16.58743 | 87.78610 | 37839 ft | 483 kts | 282° |
| 2026-05-06 08:30 | 16.61937 | 87.65107 | 37833 ft | 483 kts | 282° |
| 2026-05-06 08:31 | 16.65144 | 87.51514 | 37832 ft | 483 kts | 282° |
| 2026-05-06 08:31 | 16.68315 | 87.38026 | 37839 ft | 483 kts | 282° |
| 2026-05-06 08:32 | 16.71474 | 87.24548 | 37843 ft | 480 kts | 282° |
| 2026-05-06 08:32 | 16.74643 | 87.11033 | 37832 ft | 479 kts | 282° |
| 2026-05-06 08:33 | 16.77861 | 86.97553 | 37825 ft | 478 kts | 282° |
| 2026-05-06 08:33 | 16.81059 | 86.84078 | 37815 ft | 479 kts | 282° |
| 2026-05-06 08:34 | 16.85828 | 86.63904 | 37835 ft | 480 kts | 282° |
| 2026-05-06 08:35 | 16.89013 | 86.50378 | 37841 ft | 479 kts | 282° |
| 2026-05-06 08:35 | 16.92185 | 86.36863 | 37836 ft | 479 kts | 282° |
| 2026-05-06 08:36 | 16.95346 | 86.23353 | 37829 ft | 479 kts | 282° |
| 2026-05-06 08:36 | 16.98475 | 86.09938 | 37821 ft | 479 kts | 282° |
| 2026-05-06 08:37 | 17.01618 | 85.96425 | 37844 ft | 478 kts | 282° |
| 2026-05-06 08:37 | 17.04743 | 85.82942 | 37844 ft | 476 kts | 282° |
| 2026-05-06 08:38 | 17.07850 | 85.69492 | 37818 ft | 476 kts | 282° |
| 2026-05-06 08:38 | 17.10925 | 85.56144 | 37821 ft | 476 kts | 282° |
| 2026-05-06 08:39 | 17.14013 | 85.42689 | 37810 ft | 476 kts | 282° |
| 2026-05-06 08:39 | 17.17103 | 85.29202 | 37811 ft | 477 kts | 282° |
| 2026-05-06 08:40 | 17.20317 | 85.15745 | 37815 ft | 477 kts | 282° |
| 2026-05-06 08:40 | 17.23496 | 85.02366 | 37836 ft | 477 kts | 282° |
| 2026-05-06 08:41 | 17.26683 | 84.88902 | 37835 ft | 476 kts | 282° |
| 2026-05-06 08:41 | 17.29855 | 84.75457 | 37815 ft | 476 kts | 282° |
| 2026-05-06 08:42 | 17.33013 | 84.62028 | 37844 ft | 475 kts | 282° |
| 2026-05-06 08:42 | 17.36138 | 84.48704 | 37816 ft | 473 kts | 282° |
| 2026-05-06 08:43 | 17.39424 | 84.35381 | 37804 ft | 472 kts | 283° |
| 2026-05-06 08:43 | 17.42693 | 84.22053 | 37804 ft | 472 kts | 283° |
| 2026-05-06 08:44 | 17.45948 | 84.08731 | 37805 ft | 473 kts | 283° |
| 2026-05-06 08:44 | 17.49176 | 83.95475 | 37808 ft | 473 kts | 283° |
| 2026-05-06 08:45 | 17.52522 | 83.82124 | 37827 ft | 473 kts | 283° |
| 2026-05-06 08:45 | 17.55912 | 83.68808 | 37812 ft | 473 kts | 283° |
| 2026-05-06 08:46 | 17.59279 | 83.55497 | 37803 ft | 472 kts | 283° |
| 2026-05-06 08:46 | 17.62615 | 83.42267 | 37799 ft | 473 kts | 283° |
| 2026-05-06 08:47 | 17.65972 | 83.28915 | 37805 ft | 474 kts | 283° |
| 2026-05-06 08:47 | 17.69972 | 83.15749 | 37806 ft | 474 kts | 287° |
| 2026-05-06 08:48 | 17.74198 | 83.02656 | 37808 ft | 474 kts | 287° |
| 2026-05-06 08:48 | 17.78386 | 82.89654 | 37830 ft | 473 kts | 287° |
| 2026-05-06 08:49 | 17.82592 | 82.76564 | 37844 ft | 473 kts | 287° |
| 2026-05-06 08:49 | 17.86789 | 82.63468 | 37857 ft | 474 kts | 287° |
| 2026-05-06 08:50 | 17.90984 | 82.50342 | 37881 ft | 475 kts | 287° |
| 2026-05-06 08:50 | 17.95150 | 82.37277 | 37896 ft | 475 kts | 288° |
| 2026-05-06 08:51 | 17.99325 | 82.24151 | 37883 ft | 473 kts | 287° |
| 2026-05-06 08:51 | 18.03478 | 82.11054 | 37876 ft | 472 kts | 287° |
| 2026-05-06 08:52 | 18.07617 | 81.97987 | 37849 ft | 471 kts | 288° |
| 2026-05-06 08:52 | 18.11864 | 81.85072 | 37832 ft | 470 kts | 288° |
| 2026-05-06 08:53 | 18.16119 | 81.72062 | 37836 ft | 471 kts | 288° |
| 2026-05-06 08:53 | 18.20370 | 81.59024 | 37860 ft | 472 kts | 288° |
| 2026-05-06 08:54 | 18.24620 | 81.45953 | 37868 ft | 472 kts | 288° |
| 2026-05-06 08:54 | 18.28827 | 81.32982 | 37882 ft | 471 kts | 288° |
| 2026-05-06 08:55 | 18.33040 | 81.19962 | 37874 ft | 469 kts | 288° |
| 2026-05-06 08:55 | 18.37233 | 81.06965 | 37864 ft | 468 kts | 288° |
| 2026-05-06 08:56 | 18.41408 | 80.93995 | 37863 ft | 467 kts | 288° |
| 2026-05-06 08:56 | 18.45544 | 80.81108 | 37858 ft | 468 kts | 288° |
| 2026-05-06 08:57 | 18.49709 | 80.68099 | 37868 ft | 469 kts | 288° |
| 2026-05-06 08:57 | 18.53855 | 80.55059 | 37877 ft | 470 kts | 287° |
| 2026-05-06 08:58 | 18.57775 | 80.41902 | 37869 ft | 471 kts | 287° |
| 2026-05-06 08:58 | 18.61720 | 80.28733 | 37864 ft | 471 kts | 287° |
| 2026-05-06 08:59 | 18.65632 | 80.15647 | 37855 ft | 471 kts | 287° |
| 2026-05-06 08:59 | 18.69562 | 80.02458 | 37856 ft | 472 kts | 287° |
| 2026-05-06 09:00 | 18.73488 | 79.89248 | 37858 ft | 472 kts | 287° |
| 2026-05-06 09:00 | 18.77403 | 79.76036 | 37855 ft | 472 kts | 287° |
| 2026-05-06 09:01 | 18.81288 | 79.62891 | 37852 ft | 473 kts | 287° |
| 2026-05-06 09:01 | 18.85195 | 79.49630 | 37857 ft | 473 kts | 287° |
| 2026-05-06 09:02 | 18.89090 | 79.36377 | 37848 ft | 472 kts | 287° |
| 2026-05-06 09:02 | 18.92976 | 79.23111 | 37843 ft | 473 kts | 287° |
| 2026-05-06 09:03 | 18.96824 | 79.09941 | 37839 ft | 473 kts | 287° |
| 2026-05-06 09:03 | 19.00690 | 78.96668 | 37833 ft | 472 kts | 287° |
| 2026-05-06 09:04 | 19.04546 | 78.83392 | 37833 ft | 472 kts | 287° |
| 2026-05-06 09:04 | 19.08390 | 78.70120 | 37832 ft | 472 kts | 287° |
| 2026-05-06 09:05 | 19.12202 | 78.56917 | 37852 ft | 471 kts | 287° |
| 2026-05-06 09:05 | 19.16012 | 78.43684 | 37839 ft | 470 kts | 287° |
| 2026-05-06 09:06 | 19.19803 | 78.30478 | 37831 ft | 469 kts | 287° |
| 2026-05-06 09:06 | 19.23580 | 78.17281 | 37822 ft | 468 kts | 287° |
| 2026-05-06 09:07 | 19.26847 | 78.04054 | 37819 ft | 468 kts | 283° |
| 2026-05-06 09:07 | 19.29894 | 77.90659 | 37831 ft | 468 kts | 284° |
| 2026-05-06 09:08 | 19.32985 | 77.77255 | 37829 ft | 469 kts | 284° |
| 2026-05-06 09:08 | 19.36065 | 77.63831 | 37827 ft | 469 kts | 284° |
| 2026-05-06 09:09 | 19.39127 | 77.50429 | 37832 ft | 468 kts | 284° |
| 2026-05-06 09:09 | 19.42151 | 77.37143 | 37822 ft | 467 kts | 283° |
| 2026-05-06 09:10 | 19.45180 | 77.23786 | 37817 ft | 466 kts | 283° |
| 2026-05-06 09:10 | 19.48178 | 77.10425 | 37812 ft | 466 kts | 283° |
| 2026-05-06 09:11 | 19.51171 | 76.97049 | 37823 ft | 467 kts | 283° |
| 2026-05-06 09:11 | 19.54140 | 76.83734 | 37822 ft | 468 kts | 283° |
| 2026-05-06 09:12 | 19.57182 | 76.70323 | 37829 ft | 468 kts | 284° |
| 2026-05-06 09:12 | 19.60224 | 76.56901 | 37830 ft | 468 kts | 284° |
| 2026-05-06 09:13 | 19.63252 | 76.43479 | 37846 ft | 467 kts | 283° |
| 2026-05-06 09:13 | 19.66261 | 76.30094 | 37841 ft | 466 kts | 283° |
| 2026-05-06 09:14 | 19.69235 | 76.16814 | 37838 ft | 465 kts | 283° |
| 2026-05-06 09:14 | 19.72215 | 76.03461 | 37827 ft | 465 kts | 283° |
| 2026-05-06 09:15 | 19.75185 | 75.90098 | 37839 ft | 465 kts | 283° |
| 2026-05-06 09:15 | 19.78150 | 75.76714 | 37841 ft | 466 kts | 283° |
| 2026-05-06 09:16 | 19.81092 | 75.63382 | 37855 ft | 467 kts | 283° |
| 2026-05-06 09:16 | 19.84047 | 75.49937 | 37860 ft | 468 kts | 283° |
| 2026-05-06 09:17 | 19.86935 | 75.36451 | 37885 ft | 467 kts | 281° |
| 2026-05-06 09:17 | 19.89388 | 75.22917 | 37870 ft | 466 kts | 281° |
| 2026-05-06 09:18 | 19.91867 | 75.09519 | 37862 ft | 465 kts | 281° |
| 2026-05-06 09:18 | 19.94352 | 74.96046 | 37843 ft | 465 kts | 281° |
| 2026-05-06 09:19 | 19.96214 | 74.85911 | 37844 ft | 465 kts | 281° |
| 2026-05-06 09:19 | 19.97451 | 74.79159 | 37614 ft | 465 kts | 281° |
| 2026-05-06 09:19 | 19.98067 | 74.75793 | 37908 ft | 466 kts | 281° |
| 2026-05-06 09:20 | 19.98678 | 74.72448 | 37872 ft | 467 kts | 281° |
| 2026-05-06 09:20 | 19.99914 | 74.65675 | 37867 ft | 466 kts | 281° |
| 2026-05-06 09:21 | 20.01145 | 74.58913 | 37874 ft | 466 kts | 281° |
| 2026-05-06 09:21 | 20.02374 | 74.52143 | 37877 ft | 466 kts | 281° |
| 2026-05-06 09:22 | 20.03600 | 74.45376 | 37873 ft | 467 kts | 281° |
| 2026-05-06 09:22 | 20.04818 | 74.38639 | 37880 ft | 467 kts | 281° |
| 2026-05-06 09:23 | 20.06041 | 74.31859 | 37859 ft | 467 kts | 281° |
| 2026-05-06 09:23 | 20.07262 | 74.25077 | 37865 ft | 467 kts | 281° |
| 2026-05-06 09:24 | 20.08470 | 74.18347 | 37876 ft | 467 kts | 281° |
| 2026-05-06 09:24 | 20.09686 | 74.11560 | 37881 ft | 466 kts | 281° |
| 2026-05-06 09:25 | 20.10896 | 74.04788 | 37887 ft | 466 kts | 281° |
| 2026-05-06 09:25 | 20.12098 | 73.98048 | 37874 ft | 466 kts | 281° |
| 2026-05-06 09:26 | 20.13294 | 73.91326 | 37877 ft | 466 kts | 281° |
| 2026-05-06 09:26 | 20.14489 | 73.84591 | 37874 ft | 466 kts | 281° |
| 2026-05-06 09:27 | 20.15691 | 73.77807 | 37872 ft | 467 kts | 281° |
| 2026-05-06 09:27 | 20.16890 | 73.71019 | 37875 ft | 467 kts | 281° |
| 2026-05-06 09:28 | 20.18089 | 73.64218 | 37869 ft | 468 kts | 281° |
| 2026-05-06 09:28 | 20.19280 | 73.57451 | 37865 ft | 469 kts | 281° |
| 2026-05-06 09:29 | 20.20477 | 73.50627 | 37862 ft | 469 kts | 281° |
| 2026-05-06 09:29 | 20.21673 | 73.43794 | 37866 ft | 470 kts | 281° |
| 2026-05-06 09:30 | 20.22868 | 73.36954 | 37859 ft | 470 kts | 281° |
| 2026-05-06 09:30 | 20.24053 | 73.30157 | 37855 ft | 470 kts | 281° |
| 2026-05-06 09:31 | 20.25253 | 73.23321 | 37848 ft | 470 kts | 281° |
| 2026-05-06 09:31 | 20.26543 | 73.16502 | 37846 ft | 470 kts | 282° |
| 2026-05-06 09:32 | 20.27839 | 73.09674 | 37847 ft | 470 kts | 281° |
| 2026-05-06 09:32 | 20.29121 | 73.02843 | 37843 ft | 470 kts | 281° |
| 2026-05-06 09:33 | 20.30389 | 72.96057 | 37863 ft | 470 kts | 281° |
| 2026-05-06 09:33 | 20.31661 | 72.89235 | 37847 ft | 470 kts | 281° |
| 2026-05-06 09:34 | 20.32930 | 72.82414 | 37847 ft | 469 kts | 281° |
| 2026-05-06 09:34 | 20.34195 | 72.75593 | 37839 ft | 469 kts | 281° |
| 2026-05-06 09:35 | 20.35450 | 72.68817 | 37838 ft | 469 kts | 281° |
| 2026-05-06 09:35 | 20.36700 | 72.62051 | 37837 ft | 469 kts | 281° |
| 2026-05-06 09:36 | 20.37956 | 72.55238 | 37820 ft | 469 kts | 281° |
| 2026-05-06 09:36 | 20.39212 | 72.48413 | 37819 ft | 469 kts | 281° |
| 2026-05-06 09:37 | 20.40454 | 72.41642 | 37814 ft | 469 kts | 281° |
| 2026-05-06 09:37 | 20.41675 | 72.34974 | 37816 ft | 469 kts | 281° |
| 2026-05-06 09:38 | 20.42916 | 72.28181 | 37815 ft | 469 kts | 281° |
| 2026-05-06 09:38 | 20.44161 | 72.21351 | 37804 ft | 469 kts | 281° |
| 2026-05-06 09:39 | 20.45404 | 72.14517 | 37809 ft | 469 kts | 281° |
| 2026-05-06 09:39 | 20.46635 | 72.07728 | 37804 ft | 470 kts | 281° |
| 2026-05-06 09:40 | 20.47875 | 72.00884 | 37808 ft | 470 kts | 281° |
| 2026-05-06 09:40 | 20.49719 | 71.90600 | 37808 ft | 471 kts | 281° |
| 2026-05-06 09:41 | 20.50939 | 71.83790 | 37819 ft | 471 kts | 281° |
| 2026-05-06 09:41 | 20.52166 | 71.76934 | 37815 ft | 470 kts | 281° |
| 2026-05-06 09:42 | 20.53388 | 71.70080 | 37813 ft | 470 kts | 281° |
| 2026-05-06 09:42 | 20.54607 | 71.63226 | 37805 ft | 470 kts | 281° |
| 2026-05-06 09:43 | 20.55815 | 71.56420 | 37805 ft | 470 kts | 281° |
| 2026-05-06 09:43 | 20.57029 | 71.49563 | 37791 ft | 470 kts | 281° |
| 2026-05-06 09:44 | 20.58239 | 71.42709 | 37793 ft | 470 kts | 281° |
| 2026-05-06 09:44 | 20.59447 | 71.35850 | 37793 ft | 470 kts | 281° |
| 2026-05-06 09:45 | 20.60646 | 71.29034 | 37791 ft | 470 kts | 281° |
| 2026-05-06 09:45 | 20.61849 | 71.22172 | 37784 ft | 470 kts | 281° |
| 2026-05-06 09:46 | 20.63051 | 71.15300 | 37778 ft | 471 kts | 281° |
| 2026-05-06 09:46 | 20.64249 | 71.08435 | 37777 ft | 471 kts | 281° |
| 2026-05-06 09:47 | 20.65437 | 71.01610 | 37776 ft | 471 kts | 281° |
| 2026-05-06 09:47 | 20.66629 | 70.94741 | 37773 ft | 471 kts | 281° |
| 2026-05-06 09:48 | 20.67820 | 70.87866 | 37770 ft | 471 kts | 281° |
| 2026-05-06 09:48 | 20.69008 | 70.80992 | 37766 ft | 471 kts | 281° |
| 2026-05-06 09:49 | 20.70186 | 70.74159 | 37791 ft | 471 kts | 280° |
| 2026-05-06 09:49 | 20.71368 | 70.67284 | 37799 ft | 470 kts | 280° |
| 2026-05-06 09:50 | 20.72547 | 70.60413 | 37804 ft | 470 kts | 280° |
| 2026-05-06 09:50 | 20.73722 | 70.53545 | 37805 ft | 470 kts | 280° |
| 2026-05-06 09:51 | 20.74886 | 70.46725 | 37809 ft | 470 kts | 280° |
| 2026-05-06 09:51 | 20.76055 | 70.39860 | 37809 ft | 470 kts | 280° |
| 2026-05-06 09:52 | 20.77222 | 70.32993 | 37817 ft | 470 kts | 280° |
| 2026-05-06 09:52 | 20.78384 | 70.26129 | 37816 ft | 469 kts | 280° |
| 2026-05-06 09:53 | 20.79537 | 70.19309 | 37818 ft | 470 kts | 280° |
| 2026-05-06 09:53 | 20.80695 | 70.12438 | 37812 ft | 470 kts | 280° |
| 2026-05-06 09:54 | 20.81852 | 70.05562 | 37821 ft | 470 kts | 280° |
| 2026-05-06 09:54 | 20.83005 | 69.98688 | 37824 ft | 470 kts | 280° |
| 2026-05-06 09:55 | 20.84148 | 69.91852 | 37822 ft | 470 kts | 280° |
| 2026-05-06 09:55 | 20.85297 | 69.84970 | 37819 ft | 471 kts | 280° |
| 2026-05-06 09:56 | 20.86444 | 69.78080 | 37818 ft | 471 kts | 280° |
| 2026-05-06 09:56 | 20.87589 | 69.71181 | 37822 ft | 471 kts | 280° |
| 2026-05-06 09:57 | 20.88724 | 69.64327 | 37832 ft | 472 kts | 280° |
| 2026-05-06 09:57 | 20.89866 | 69.57413 | 37835 ft | 472 kts | 280° |
| 2026-05-06 09:58 | 20.91007 | 69.50492 | 37822 ft | 473 kts | 280° |
| 2026-05-06 09:58 | 20.92138 | 69.43605 | 37840 ft | 475 kts | 280° |
| 2026-05-06 09:59 | 20.92711 | 69.40115 | 38220 ft | 477 kts | 280° |
| 2026-05-06 09:59 | 20.93281 | 69.36635 | 38718 ft | 475 kts | 280° |
| 2026-05-06 09:59 | 20.93848 | 69.33164 | 39174 ft | 473 kts | 280° |
| 2026-05-06 09:59 | 20.94414 | 69.29701 | 39584 ft | 471 kts | 280° |
| 2026-05-06 10:00 | 20.94978 | 69.26243 | 39810 ft | 475 kts | 280° |
| 2026-05-06 10:00 | 20.95543 | 69.22778 | 39838 ft | 469 kts | 280° |
| 2026-05-06 10:00 | 20.96659 | 69.15935 | 39840 ft | 469 kts | 281° |
| 2026-05-06 10:01 | 20.98351 | 69.09233 | 39840 ft | 470 kts | 290° |
| 2026-05-06 10:01 | 21.00920 | 69.02804 | 39839 ft | 470 kts | 294° |
| 2026-05-06 10:02 | 21.03591 | 68.96407 | 39843 ft | 470 kts | 293° |
| 2026-05-06 10:02 | 21.06256 | 68.90012 | 39843 ft | 471 kts | 293° |
| 2026-05-06 10:03 | 21.08906 | 68.83657 | 39852 ft | 470 kts | 293° |
| 2026-05-06 10:03 | 21.11566 | 68.77268 | 39856 ft | 469 kts | 293° |
| 2026-05-06 10:04 | 21.14221 | 68.70886 | 39849 ft | 469 kts | 293° |
| 2026-05-06 10:04 | 21.16867 | 68.64515 | 39844 ft | 468 kts | 293° |
| 2026-05-06 10:05 | 21.19509 | 68.58148 | 39844 ft | 467 kts | 293° |
| 2026-05-06 10:05 | 21.22116 | 68.51857 | 39835 ft | 467 kts | 293° |
| 2026-05-06 10:06 | 21.24750 | 68.45492 | 39831 ft | 467 kts | 293° |
| 2026-05-06 10:06 | 21.27385 | 68.39118 | 39834 ft | 468 kts | 293° |
| 2026-05-06 10:07 | 21.30001 | 68.32780 | 39838 ft | 468 kts | 293° |
| 2026-05-06 10:07 | 21.32634 | 68.26393 | 39855 ft | 468 kts | 293° |
| 2026-05-06 10:08 | 21.35262 | 68.20010 | 39853 ft | 467 kts | 293° |
| 2026-05-06 10:08 | 21.37884 | 68.13635 | 39839 ft | 467 kts | 293° |
| 2026-05-06 10:09 | 21.40488 | 68.07295 | 39836 ft | 467 kts | 293° |
| 2026-05-06 10:09 | 21.43105 | 68.00915 | 39836 ft | 467 kts | 293° |
| 2026-05-06 10:10 | 21.45722 | 67.94529 | 39836 ft | 467 kts | 293° |
| 2026-05-06 10:10 | 21.48333 | 67.88145 | 39838 ft | 467 kts | 293° |
| 2026-05-06 10:11 | 21.50942 | 67.81761 | 39839 ft | 467 kts | 293° |
| 2026-05-06 10:11 | 21.53534 | 67.75409 | 39838 ft | 467 kts | 293° |
| 2026-05-06 10:12 | 21.56138 | 67.69021 | 39860 ft | 466 kts | 293° |
| 2026-05-06 10:12 | 21.58733 | 67.62644 | 39853 ft | 465 kts | 293° |
| 2026-05-06 10:13 | 21.61322 | 67.56275 | 39851 ft | 465 kts | 293° |
| 2026-05-06 10:13 | 21.63887 | 67.49958 | 39832 ft | 465 kts | 293° |
| 2026-05-06 10:14 | 21.66468 | 67.43592 | 39824 ft | 464 kts | 293° |
| 2026-05-06 10:14 | 21.69047 | 67.37224 | 39827 ft | 464 kts | 293° |
| 2026-05-06 10:15 | 21.71622 | 67.30857 | 39833 ft | 465 kts | 293° |
| 2026-05-06 10:15 | 21.74181 | 67.24520 | 39833 ft | 465 kts | 293° |
| 2026-05-06 10:16 | 21.76756 | 67.18136 | 39828 ft | 466 kts | 293° |
| 2026-05-06 10:16 | 21.79332 | 67.11741 | 39846 ft | 466 kts | 293° |
| 2026-05-06 10:17 | 21.81903 | 67.05350 | 39844 ft | 466 kts | 293° |
| 2026-05-06 10:17 | 21.84473 | 66.98955 | 39848 ft | 465 kts | 293° |
| 2026-05-06 10:18 | 21.87021 | 66.92602 | 39849 ft | 465 kts | 293° |
| 2026-05-06 10:18 | 21.89582 | 66.86213 | 39834 ft | 465 kts | 292° |
| 2026-05-06 10:19 | 21.92143 | 66.79812 | 39835 ft | 465 kts | 292° |
| 2026-05-06 10:19 | 21.94701 | 66.73411 | 39839 ft | 465 kts | 292° |
| 2026-05-06 10:20 | 21.97240 | 66.67050 | 39838 ft | 465 kts | 292° |
| 2026-05-06 10:20 | 21.99794 | 66.60643 | 39849 ft | 465 kts | 292° |
| 2026-05-06 10:21 | 22.02345 | 66.54237 | 39833 ft | 465 kts | 292° |
| 2026-05-06 10:21 | 22.04894 | 66.47832 | 39836 ft | 465 kts | 292° |
| 2026-05-06 10:22 | 22.07437 | 66.41418 | 39838 ft | 465 kts | 292° |
| 2026-05-06 10:22 | 22.09962 | 66.35046 | 39836 ft | 465 kts | 292° |
| 2026-05-06 10:23 | 22.12504 | 66.28633 | 39842 ft | 465 kts | 292° |
| 2026-05-06 10:23 | 22.15044 | 66.22213 | 39833 ft | 466 kts | 292° |
| 2026-05-06 10:24 | 22.17582 | 66.15786 | 39833 ft | 466 kts | 292° |
| 2026-05-06 10:24 | 22.20104 | 66.09395 | 39834 ft | 466 kts | 292° |
| 2026-05-06 10:25 | 22.22642 | 66.02952 | 39857 ft | 466 kts | 292° |
| 2026-05-06 10:25 | 22.25171 | 65.96522 | 39852 ft | 465 kts | 292° |
| 2026-05-06 10:26 | 22.27694 | 65.90101 | 39838 ft | 465 kts | 292° |
| 2026-05-06 10:26 | 22.30189 | 65.83740 | 39834 ft | 464 kts | 292° |
| 2026-05-06 10:27 | 22.32704 | 65.77323 | 39828 ft | 464 kts | 292° |
| 2026-05-06 10:27 | 22.35216 | 65.70903 | 39823 ft | 464 kts | 292° |
| 2026-05-06 10:28 | 22.37726 | 65.64479 | 39827 ft | 464 kts | 292° |
| 2026-05-06 10:28 | 22.40216 | 65.58096 | 39819 ft | 465 kts | 292° |
| 2026-05-06 10:29 | 22.42691 | 65.51745 | 39831 ft | 465 kts | 292° |
| 2026-05-06 10:29 | 22.45197 | 65.45305 | 39846 ft | 465 kts | 292° |
| 2026-05-06 10:30 | 22.47700 | 65.38864 | 39843 ft | 464 kts | 292° |
| 2026-05-06 10:30 | 22.50197 | 65.32429 | 39837 ft | 464 kts | 292° |
| 2026-05-06 10:31 | 22.52676 | 65.26032 | 39834 ft | 464 kts | 292° |
| 2026-05-06 10:31 | 22.55170 | 65.19587 | 39838 ft | 464 kts | 292° |
| 2026-05-06 10:32 | 22.57660 | 65.13144 | 39835 ft | 464 kts | 292° |
| 2026-05-06 10:32 | 22.60149 | 65.06695 | 39837 ft | 464 kts | 292° |
| 2026-05-06 10:33 | 22.62618 | 65.00287 | 39836 ft | 464 kts | 292° |
| 2026-05-06 10:33 | 22.65103 | 64.93829 | 39823 ft | 465 kts | 292° |
| 2026-05-06 10:34 | 22.67591 | 64.87356 | 39820 ft | 466 kts | 292° |
| 2026-05-06 10:34 | 22.70079 | 64.80872 | 39834 ft | 466 kts | 292° |
| 2026-05-06 10:35 | 22.72551 | 64.74423 | 39837 ft | 467 kts | 292° |
| 2026-05-06 10:35 | 22.75039 | 64.67921 | 39837 ft | 467 kts | 292° |
| 2026-05-06 10:36 | 22.77524 | 64.61419 | 39836 ft | 467 kts | 292° |
| 2026-05-06 10:36 | 22.80006 | 64.54912 | 39838 ft | 467 kts | 292° |
| 2026-05-06 10:37 | 22.82489 | 64.48396 | 39837 ft | 467 kts | 292° |
| 2026-05-06 10:37 | 22.84950 | 64.41928 | 39852 ft | 467 kts | 292° |
| 2026-05-06 10:38 | 22.87421 | 64.35425 | 39841 ft | 466 kts | 292° |
| 2026-05-06 10:38 | 22.89891 | 64.28914 | 39836 ft | 466 kts | 292° |
| 2026-05-06 10:39 | 22.92353 | 64.22415 | 39842 ft | 466 kts | 292° |
| 2026-05-06 10:39 | 22.94811 | 64.15919 | 39828 ft | 465 kts | 292° |
| 2026-05-06 10:40 | 22.97250 | 64.09462 | 39829 ft | 465 kts | 291° |
| 2026-05-06 10:40 | 22.99702 | 64.02964 | 39813 ft | 466 kts | 291° |
| 2026-05-06 10:41 | 23.02153 | 63.96458 | 39826 ft | 466 kts | 291° |
| 2026-05-06 10:41 | 23.04499 | 63.89906 | 39829 ft | 466 kts | 287° |
| 2026-05-06 10:42 | 23.06084 | 63.83128 | 39829 ft | 467 kts | 280° |
| 2026-05-06 10:42 | 23.06911 | 63.76133 | 39827 ft | 467 kts | 277° |
| 2026-05-06 10:43 | 23.07651 | 63.69121 | 39838 ft | 468 kts | 277° |
| 2026-05-06 10:44 | 23.08749 | 63.58621 | 39839 ft | 469 kts | 276° |
| 2026-05-06 10:44 | 23.09472 | 63.51596 | 39844 ft | 469 kts | 276° |
| 2026-05-06 10:45 | 23.10175 | 63.44731 | 39837 ft | 469 kts | 276° |
| 2026-05-06 10:45 | 23.10894 | 63.37687 | 39842 ft | 469 kts | 276° |
| 2026-05-06 10:46 | 23.11608 | 63.30648 | 39842 ft | 469 kts | 276° |
| 2026-05-06 10:46 | 23.12316 | 63.23651 | 39843 ft | 469 kts | 276° |
| 2026-05-06 10:47 | 23.13025 | 63.16609 | 39834 ft | 469 kts | 276° |
| 2026-05-06 10:47 | 23.13730 | 63.09573 | 39823 ft | 469 kts | 276° |
| 2026-05-06 10:48 | 23.14433 | 63.02520 | 39831 ft | 469 kts | 276° |
| 2026-05-06 10:48 | 23.15133 | 62.95466 | 39840 ft | 469 kts | 276° |
| 2026-05-06 10:49 | 23.15825 | 62.88468 | 39845 ft | 469 kts | 276° |
| 2026-05-06 10:49 | 23.16517 | 62.81429 | 39844 ft | 469 kts | 276° |
| 2026-05-06 10:50 | 23.17206 | 62.74390 | 39833 ft | 468 kts | 276° |
| 2026-05-06 10:50 | 23.17892 | 62.67353 | 39835 ft | 468 kts | 276° |
| 2026-05-06 10:51 | 23.18570 | 62.60369 | 39827 ft | 468 kts | 276° |
| 2026-05-06 10:51 | 23.19249 | 62.53335 | 39828 ft | 468 kts | 276° |
| 2026-05-06 10:52 | 23.19924 | 62.46307 | 39819 ft | 468 kts | 276° |
| 2026-05-06 10:52 | 23.20597 | 62.39268 | 39829 ft | 468 kts | 276° |
| 2026-05-06 10:53 | 23.21264 | 62.32268 | 39828 ft | 470 kts | 276° |
| 2026-05-06 10:53 | 23.21939 | 62.25142 | 39832 ft | 470 kts | 276° |
| 2026-05-06 10:54 | 23.22603 | 62.18097 | 39829 ft | 470 kts | 276° |
| 2026-05-06 10:54 | 23.23266 | 62.11022 | 39825 ft | 470 kts | 276° |
| 2026-05-06 10:55 | 23.23923 | 62.03993 | 39828 ft | 470 kts | 276° |
| 2026-05-06 10:55 | 23.24580 | 61.96917 | 39833 ft | 470 kts | 276° |
| 2026-05-06 10:56 | 23.25228 | 61.89910 | 39840 ft | 469 kts | 276° |
| 2026-05-06 10:56 | 23.25877 | 61.82855 | 39842 ft | 469 kts | 276° |
| 2026-05-06 10:57 | 23.26515 | 61.75886 | 39830 ft | 468 kts | 275° |
| 2026-05-06 10:57 | 23.27156 | 61.68844 | 39832 ft | 468 kts | 275° |
| 2026-05-06 10:58 | 23.27794 | 61.61805 | 39824 ft | 468 kts | 275° |
| 2026-05-06 10:58 | 23.28429 | 61.54766 | 39821 ft | 467 kts | 275° |
| 2026-05-06 10:59 | 23.29056 | 61.47779 | 39825 ft | 467 kts | 275° |
| 2026-05-06 10:59 | 23.29680 | 61.40794 | 39830 ft | 467 kts | 275° |
| 2026-05-06 11:00 | 23.30304 | 61.33765 | 39821 ft | 467 kts | 275° |
| 2026-05-06 11:00 | 23.30822 | 61.27912 | 39815 ft | 468 kts | 275° |
| 2026-05-06 11:01 | 23.31443 | 61.20870 | 39818 ft | 468 kts | 275° |
| 2026-05-06 11:01 | 23.32299 | 61.12682 | 39828 ft | 469 kts | 278° |
| 2026-05-06 11:02 | 23.33236 | 61.05659 | 39828 ft | 469 kts | 278° |
| 2026-05-06 11:02 | 23.33991 | 60.99807 | 39821 ft | 470 kts | 277° |
| 2026-05-06 11:03 | 23.34875 | 60.92766 | 39843 ft | 469 kts | 277° |
| 2026-05-06 11:03 | 23.35891 | 60.84595 | 39831 ft | 469 kts | 277° |
| 2026-05-06 11:04 | 23.36620 | 60.78709 | 39828 ft | 468 kts | 277° |
| 2026-05-06 11:04 | 23.37481 | 60.71736 | 39818 ft | 468 kts | 277° |
| 2026-05-06 11:05 | 23.38657 | 60.64772 | 39804 ft | 468 kts | 284° |
| 2026-05-06 11:05 | 23.40756 | 60.58069 | 39806 ft | 469 kts | 291° |
| 2026-05-06 11:06 | 23.43182 | 60.51480 | 39798 ft | 469 kts | 290° |
| 2026-05-06 11:06 | 23.45566 | 60.44932 | 39790 ft | 469 kts | 290° |
| 2026-05-06 11:07 | 23.47973 | 60.38330 | 39789 ft | 469 kts | 290° |
| 2026-05-06 11:07 | 23.50376 | 60.31732 | 39818 ft | 469 kts | 290° |
| 2026-05-06 11:08 | 23.52721 | 60.25289 | 39817 ft | 468 kts | 290° |
| 2026-05-06 11:08 | 23.55118 | 60.18691 | 39811 ft | 468 kts | 290° |
| 2026-05-06 11:09 | 23.57494 | 60.12140 | 39792 ft | 468 kts | 290° |
| 2026-05-06 11:09 | 23.59884 | 60.05538 | 39798 ft | 468 kts | 290° |
| 2026-05-06 11:10 | 23.62270 | 59.98943 | 39788 ft | 468 kts | 290° |
| 2026-05-06 11:10 | 23.64651 | 59.92345 | 39795 ft | 468 kts | 290° |
| 2026-05-06 11:11 | 23.67018 | 59.85780 | 39812 ft | 468 kts | 290° |
| 2026-05-06 11:11 | 23.69393 | 59.79183 | 39811 ft | 467 kts | 290° |
| 2026-05-06 11:12 | 23.71763 | 59.72587 | 39807 ft | 467 kts | 290° |
| 2026-05-06 11:12 | 23.74128 | 59.65993 | 39808 ft | 466 kts | 290° |
| 2026-05-06 11:13 | 23.76470 | 59.59455 | 39802 ft | 466 kts | 290° |
| 2026-05-06 11:13 | 23.78803 | 59.52932 | 39803 ft | 466 kts | 290° |
| 2026-05-06 11:14 | 23.81155 | 59.46346 | 39792 ft | 466 kts | 290° |
| 2026-05-06 11:14 | 23.83504 | 59.39759 | 39789 ft | 465 kts | 290° |
| 2026-05-06 11:15 | 23.84713 | 59.36361 | 39821 ft | 465 kts | 290° |
| 2026-05-06 11:15 | 23.87030 | 59.29841 | 39802 ft | 464 kts | 290° |
| 2026-05-06 11:16 | 23.89554 | 59.22735 | 39794 ft | 464 kts | 290° |
| 2026-05-06 11:16 | 23.91858 | 59.16245 | 39803 ft | 464 kts | 290° |
| 2026-05-06 11:17 | 23.93057 | 59.12862 | 39798 ft | 463 kts | 289° |
| 2026-05-06 11:18 | 23.97370 | 58.99370 | 39781 ft | 463 kts | 288° |
| 2026-05-06 11:18 | 23.99493 | 58.92720 | 39783 ft | 463 kts | 288° |
| 2026-05-06 11:19 | 24.01609 | 58.86109 | 39796 ft | 463 kts | 288° |
| 2026-05-06 11:19 | 24.03717 | 58.79513 | 39794 ft | 462 kts | 288° |
| 2026-05-06 11:20 | 24.05834 | 58.72874 | 39795 ft | 462 kts | 288° |
| 2026-05-06 11:20 | 24.07946 | 58.66238 | 39794 ft | 462 kts | 288° |
| 2026-05-06 11:21 | 24.10047 | 58.59626 | 39790 ft | 461 kts | 288° |
| 2026-05-06 11:21 | 24.12158 | 58.52971 | 39790 ft | 461 kts | 288° |
| 2026-05-06 11:22 | 24.14246 | 58.46381 | 39784 ft | 461 kts | 288° |
| 2026-05-06 11:22 | 24.16344 | 58.39746 | 39794 ft | 461 kts | 288° |
| 2026-05-06 11:23 | 24.18441 | 58.33104 | 39801 ft | 461 kts | 288° |
| 2026-05-06 11:23 | 24.20532 | 58.26471 | 39797 ft | 460 kts | 288° |
| 2026-05-06 11:24 | 24.22602 | 58.19890 | 39795 ft | 460 kts | 288° |
| 2026-05-06 11:24 | 24.24682 | 58.13267 | 39794 ft | 460 kts | 288° |
| 2026-05-06 11:25 | 24.26758 | 58.06646 | 39791 ft | 459 kts | 288° |
| 2026-05-06 11:25 | 24.28830 | 58.00027 | 39787 ft | 459 kts | 288° |
| 2026-05-06 11:26 | 24.30901 | 57.93400 | 39707 ft | 457 kts | 288° |
| 2026-05-06 11:26 | 24.31925 | 57.90121 | 39480 ft | 453 kts | 287° |
| 2026-05-06 11:26 | 24.32925 | 57.86916 | 39252 ft | 449 kts | 287° |
| 2026-05-06 11:26 | 24.33934 | 57.83673 | 39026 ft | 450 kts | 287° |
| 2026-05-06 11:27 | 24.34946 | 57.80420 | 38794 ft | 451 kts | 287° |
| 2026-05-06 11:27 | 24.35963 | 57.77152 | 38574 ft | 452 kts | 287° |
| 2026-05-06 11:27 | 24.36975 | 57.73895 | 38324 ft | 452 kts | 287° |
| 2026-05-06 11:27 | 24.37990 | 57.70625 | 38056 ft | 452 kts | 287° |
| 2026-05-06 11:28 | 24.39002 | 57.67362 | 37801 ft | 452 kts | 287° |
| 2026-05-06 11:28 | 24.40015 | 57.64094 | 37542 ft | 453 kts | 287° |
| 2026-05-06 11:28 | 24.41030 | 57.60818 | 37277 ft | 453 kts | 287° |
| 2026-05-06 11:28 | 24.42028 | 57.57594 | 37031 ft | 453 kts | 287° |
| 2026-05-06 11:29 | 24.43040 | 57.54320 | 36756 ft | 453 kts | 287° |
| 2026-05-06 11:29 | 24.44050 | 57.51054 | 36152 ft | 453 kts | 288° |
| 2026-05-06 11:29 | 24.45054 | 57.47801 | 35227 ft | 457 kts | 288° |
| 2026-05-06 11:29 | 24.46091 | 57.44435 | 34220 ft | 463 kts | 288° |
| 2026-05-06 11:30 | 24.47119 | 57.41097 | 33565 ft | 459 kts | 288° |
| 2026-05-06 11:30 | 24.48135 | 57.37798 | 33008 ft | 453 kts | 288° |
| 2026-05-06 11:30 | 24.49135 | 57.34550 | 32427 ft | 447 kts | 288° |
| 2026-05-06 11:30 | 24.50124 | 57.31332 | 31835 ft | 443 kts | 288° |
| 2026-05-06 11:31 | 24.51104 | 57.28143 | 31245 ft | 439 kts | 288° |
| 2026-05-06 11:31 | 24.52063 | 57.25016 | 30676 ft | 436 kts | 288° |
| 2026-05-06 11:31 | 24.53026 | 57.21875 | 30097 ft | 432 kts | 288° |
| 2026-05-06 11:31 | 24.53980 | 57.18762 | 29454 ft | 430 kts | 288° |
| 2026-05-06 11:32 | 24.54919 | 57.15694 | 28890 ft | 425 kts | 288° |
| 2026-05-06 11:32 | 24.55853 | 57.12639 | 28308 ft | 421 kts | 288° |
| 2026-05-06 11:32 | 24.56779 | 57.09608 | 27734 ft | 416 kts | 288° |
| 2026-05-06 11:32 | 24.57695 | 57.06607 | 27173 ft | 413 kts | 288° |
| 2026-05-06 11:33 | 24.58604 | 57.03628 | 26608 ft | 410 kts | 288° |
| 2026-05-06 11:33 | 24.59505 | 57.00671 | 26036 ft | 407 kts | 288° |
| 2026-05-06 11:33 | 24.60390 | 56.97763 | 25451 ft | 406 kts | 288° |
| 2026-05-06 11:33 | 24.61283 | 56.94831 | 24896 ft | 404 kts | 288° |
| 2026-05-06 11:34 | 24.62170 | 56.91914 | 24324 ft | 402 kts | 288° |
| 2026-05-06 11:34 | 24.63055 | 56.89000 | 23750 ft | 401 kts | 288° |
| 2026-05-06 11:34 | 24.63946 | 56.86103 | 23155 ft | 400 kts | 291° |
| 2026-05-06 11:34 | 24.65084 | 56.83313 | 22841 ft | 402 kts | 298° |
| 2026-05-06 11:35 | 24.66517 | 56.80657 | 22808 ft | 404 kts | 302° |
| 2026-05-06 11:35 | 24.67985 | 56.78033 | 22501 ft | 403 kts | 301° |
| 2026-05-06 11:35 | 24.69424 | 56.75419 | 21717 ft | 407 kts | 301° |
| 2026-05-06 11:35 | 24.70709 | 56.72619 | 20706 ft | 414 kts | 292° |
| 2026-05-06 11:36 | 24.71787 | 56.69652 | 19708 ft | 420 kts | 292° |
| 2026-05-06 11:36 | 24.72864 | 56.66677 | 18986 ft | 418 kts | 292° |
| 2026-05-06 11:36 | 24.73941 | 56.63716 | 18288 ft | 416 kts | 292° |
| 2026-05-06 11:36 | 24.75016 | 56.60774 | 17514 ft | 414 kts | 293° |
| 2026-05-06 11:37 | 24.76085 | 56.57853 | 16914 ft | 408 kts | 292° |
| 2026-05-06 11:37 | 24.77132 | 56.54990 | 16345 ft | 400 kts | 292° |
| 2026-05-06 11:37 | 24.78163 | 56.52173 | 15775 ft | 394 kts | 292° |
| 2026-05-06 11:37 | 24.79178 | 56.49395 | 15184 ft | 389 kts | 291° |
| 2026-05-06 11:38 | 24.80168 | 56.46683 | 14602 ft | 384 kts | 291° |
| 2026-05-06 11:38 | 24.81158 | 56.43971 | 14020 ft | 380 kts | 291° |
| 2026-05-06 11:38 | 24.82137 | 56.41283 | 13439 ft | 376 kts | 291° |
| 2026-05-06 11:38 | 24.83104 | 56.38632 | 12861 ft | 370 kts | 291° |
| 2026-05-06 11:39 | 24.84054 | 56.36022 | 12308 ft | 364 kts | 291° |
| 2026-05-06 11:39 | 24.84989 | 56.33455 | 11772 ft | 359 kts | 291° |
| 2026-05-06 11:39 | 24.85908 | 56.30927 | 11249 ft | 354 kts | 290° |
| 2026-05-06 11:39 | 24.86819 | 56.28425 | 10703 ft | 350 kts | 290° |
| 2026-05-06 11:40 | 24.87711 | 56.25969 | 10480 ft | 338 kts | 290° |
| 2026-05-06 11:40 | 24.88570 | 56.23611 | 10358 ft | 324 kts | 290° |
| 2026-05-06 11:40 | 24.89116 | 56.22105 | 10288 ft | 316 kts | 290° |
| 2026-05-06 11:40 | 24.90166 | 56.19207 | 10060 ft | 302 kts | 290° |
| 2026-05-06 11:41 | 24.90931 | 56.17093 | 9725 ft | 300 kts | 290° |
| 2026-05-06 11:41 | 24.91697 | 56.14974 | 9384 ft | 296 kts | 290° |
| 2026-05-06 11:41 | 24.92454 | 56.12878 | 9057 ft | 292 kts | 290° |
| 2026-05-06 11:41 | 24.93202 | 56.10810 | 8727 ft | 289 kts | 290° |
| 2026-05-06 11:42 | 24.93692 | 56.09452 | 8517 ft | 287 kts | 291° |
| 2026-05-06 11:42 | 24.94672 | 56.06748 | 8082 ft | 282 kts | 290° |
| 2026-05-06 11:42 | 24.95384 | 56.04775 | 7782 ft | 280 kts | 290° |
| 2026-05-06 11:42 | 24.96101 | 56.02786 | 7463 ft | 278 kts | 290° |
| 2026-05-06 11:43 | 24.96812 | 56.00814 | 7148 ft | 276 kts | 291° |
| 2026-05-06 11:43 | 24.97519 | 55.98857 | 6818 ft | 274 kts | 291° |
| 2026-05-06 11:43 | 24.98219 | 55.96913 | 6516 ft | 272 kts | 290° |
| 2026-05-06 11:44 | 24.99378 | 55.93705 | 5966 ft | 270 kts | 291° |
| 2026-05-06 11:44 | 25.00067 | 55.91791 | 5649 ft | 268 kts | 291° |
| 2026-05-06 11:44 | 25.00754 | 55.89887 | 5329 ft | 267 kts | 291° |
| 2026-05-06 11:44 | 25.01659 | 55.87368 | 4908 ft | 266 kts | 291° |
| 2026-05-06 11:45 | 25.02341 | 55.85471 | 4594 ft | 266 kts | 291° |
| 2026-05-06 11:45 | 25.03033 | 55.83546 | 4453 ft | 276 kts | 290° |
| 2026-05-06 11:45 | 25.03749 | 55.81549 | 4346 ft | 282 kts | 290° |
| 2026-05-06 11:45 | 25.04236 | 55.80231 | 4297 ft | 278 kts | 293° |
| 2026-05-06 11:46 | 25.05012 | 55.78328 | 4190 ft | 266 kts | 294° |
| 2026-05-06 11:46 | 25.05778 | 55.76510 | 4074 ft | 259 kts | 294° |
| 2026-05-06 11:46 | 25.06526 | 55.74735 | 3986 ft | 258 kts | 293° |
| 2026-05-06 11:46 | 25.07287 | 55.72921 | 3707 ft | 261 kts | 294° |
| 2026-05-06 11:47 | 25.08292 | 55.70523 | 3297 ft | 261 kts | 293° |
| 2026-05-06 11:47 | 25.08803 | 55.69297 | 3113 ft | 259 kts | 294° |
| 2026-05-06 11:47 | 25.09541 | 55.67528 | 3010 ft | 249 kts | 294° |
| 2026-05-06 11:47 | 25.10248 | 55.65833 | 2808 ft | 243 kts | 294° |
| 2026-05-06 11:48 | 25.10954 | 55.64139 | 2513 ft | 243 kts | 295° |
| 2026-05-06 11:48 | 25.11647 | 55.62472 | 2438 ft | 237 kts | 295° |
| 2026-05-06 11:48 | 25.12326 | 55.60845 | 2395 ft | 229 kts | 294° |
| 2026-05-06 11:48 | 25.12908 | 55.59255 | 2328 ft | 218 kts | 294° |
| 2026-05-06 11:49 | 25.13540 | 55.57785 | 2292 ft | 207 kts | 298° |
| 2026-05-06 11:49 | 25.14235 | 55.56414 | 2222 ft | 205 kts | 301° |
| 2026-05-06 11:49 | 25.14970 | 55.55071 | 2192 ft | 200 kts | 302° |
| 2026-05-06 11:49 | 25.15673 | 55.53797 | 2149 ft | 189 kts | 302° |
| 2026-05-06 11:50 | 25.16513 | 55.52232 | 2117 ft | 173 kts | 299° |
| 2026-05-06 11:50 | 25.16925 | 55.51491 | 2110 ft | 171 kts | 300° |
| 2026-05-06 11:50 | 25.17561 | 55.50397 | 2071 ft | 168 kts | 302° |
| 2026-05-06 11:50 | 25.18145 | 55.49353 | 1967 ft | 149 kts | 299° |
| 2026-05-06 11:51 | 25.18669 | 55.48393 | 1818 ft | 144 kts | 300° |
| 2026-05-06 11:51 | 25.19186 | 55.47460 | 1649 ft | 141 kts | 300° |
| 2026-05-06 11:51 | 25.19675 | 55.46557 | 1419 ft | 134 kts | 302° |
| 2026-05-06 11:51 | 25.20177 | 55.45630 | 1262 ft | 144 kts | 303° |
| 2026-05-06 11:52 | 25.20685 | 55.44719 | 1046 ft | 135 kts | 301° |
| 2026-05-06 11:52 | 25.21178 | 55.43855 | 869 ft | 135 kts | 300° |
| 2026-05-06 11:52 | 25.21673 | 55.42962 | 717 ft | 138 kts | 300° |
| 2026-05-06 11:52 | 25.22170 | 55.42042 | 611 ft | 141 kts | 303° |
| 2026-05-06 11:53 | 25.22667 | 55.41139 | 457 ft | 136 kts | 303° |
| 2026-05-06 11:53 | 25.23166 | 55.40242 | 262 ft | 136 kts | 304° |
| 2026-05-06 11:53 | 25.23661 | 55.39356 | 61 ft | 134 kts | 302° |
| 2026-05-06 11:53 | 25.24099 | 55.38569 | 30 ft | 99 kts | 307° |
| 2026-05-06 11:54 | 25.24345 | 55.38125 | 31 ft | 38 kts | 302° |
| 2026-05-06 11:54 | 25.24462 | 55.37914 | 30 ft | 28 kts | 301° |